sensor_id;sensor_type;location;lat;lon;timestamp;P1;durP1;ratioP1;P2;durP2;ratioP2
70270;SDS011;57680;54.292;18.598;2024-03-02T00:00:50;42.40;;;18.60;;
70270;SDS011;57680;54.292;18.598;2024-03-02T00:03:16;42.03;;;17.40;;
70270;SDS011;57680;54.292;18.598;2024-03-02T00:05:42;43.55;;;16.88;;
70270;SDS011;57680;54.292;18.598;2024-03-02T00:08:07;44.10;;;18.17;;
70270;SDS011;57680;54.292;18.598;2024-03-02T00:10:37;40.57;;;17.43;;
70270;SDS011;57680;54.292;18.598;2024-03-02T00:13:03;44.80;;;18.23;;
70270;SDS011;57680;54.292;18.598;2024-03-02T00:15:42;42.90;;;17.33;;
70270;SDS011;57680;54.292;18.598;2024-03-02T00:18:13;41.97;;;17.15;;
70270;SDS011;57680;54.292;18.598;2024-03-02T00:20:41;44.20;;;16.92;;
70270;SDS011;57680;54.292;18.598;2024-03-02T00:23:07;44.07;;;17.60;;
70270;SDS011;57680;54.292;18.598;2024-03-02T00:28:28;40.35;;;16.00;;
70270;SDS011;57680;54.292;18.598;2024-03-02T00:31:04;42.15;;;17.00;;
70270;SDS011;57680;54.292;18.598;2024-03-02T00:33:34;42.33;;;17.80;;
70270;SDS011;57680;54.292;18.598;2024-03-02T00:36:02;44.60;;;16.75;;
70270;SDS011;57680;54.292;18.598;2024-03-02T00:38:28;43.03;;;17.42;;
70270;SDS011;57680;54.292;18.598;2024-03-02T00:40:54;41.28;;;17.40;;
70270;SDS011;57680;54.292;18.598;2024-03-02T00:46:07;39.65;;;16.73;;
70270;SDS011;57680;54.292;18.598;2024-03-02T00:48:32;45.13;;;17.47;;
70270;SDS011;57680;54.292;18.598;2024-03-02T00:50:57;41.47;;;16.67;;
70270;SDS011;57680;54.292;18.598;2024-03-02T00:53:23;42.93;;;17.73;;
70270;SDS011;57680;54.292;18.598;2024-03-02T00:55:51;40.27;;;17.03;;
70270;SDS011;57680;54.292;18.598;2024-03-02T00:58:17;41.72;;;17.67;;
70270;SDS011;57680;54.292;18.598;2024-03-02T01:00:42;42.43;;;16.60;;
70270;SDS011;57680;54.292;18.598;2024-03-02T01:03:07;41.20;;;16.60;;
70270;SDS011;57680;54.292;18.598;2024-03-02T01:05:33;38.83;;;16.57;;
70270;SDS011;57680;54.292;18.598;2024-03-02T01:07:58;43.95;;;17.38;;
70270;SDS011;57680;54.292;18.598;2024-03-02T01:10:23;47.37;;;18.17;;
70270;SDS011;57680;54.292;18.598;2024-03-02T01:12:49;44.43;;;17.43;;
70270;SDS011;57680;54.292;18.598;2024-03-02T01:15:14;43.57;;;16.80;;
70270;SDS011;57680;54.292;18.598;2024-03-02T01:17:39;42.27;;;16.97;;
70270;SDS011;57680;54.292;18.598;2024-03-02T01:20:07;41.70;;;17.03;;
70270;SDS011;57680;54.292;18.598;2024-03-02T01:22:33;43.20;;;17.30;;
70270;SDS011;57680;54.292;18.598;2024-03-02T01:24:58;43.53;;;16.77;;
70270;SDS011;57680;54.292;18.598;2024-03-02T01:27:24;43.33;;;17.30;;
70270;SDS011;57680;54.292;18.598;2024-03-02T01:29:49;42.33;;;17.40;;
70270;SDS011;57680;54.292;18.598;2024-03-02T01:32:14;45.80;;;17.03;;
70270;SDS011;57680;54.292;18.598;2024-03-02T01:34:39;46.07;;;18.47;;
70270;SDS011;57680;54.292;18.598;2024-03-02T01:37:05;42.40;;;16.67;;
70270;SDS011;57680;54.292;18.598;2024-03-02T01:39:30;44.23;;;17.53;;
70270;SDS011;57680;54.292;18.598;2024-03-02T01:41:55;42.20;;;16.83;;
70270;SDS011;57680;54.292;18.598;2024-03-02T01:44:21;40.87;;;15.87;;
70270;SDS011;57680;54.292;18.598;2024-03-02T01:46:46;42.97;;;17.23;;
70270;SDS011;57680;54.292;18.598;2024-03-02T01:49:11;46.57;;;16.60;;
70270;SDS011;57680;54.292;18.598;2024-03-02T01:51:36;47.77;;;18.67;;
70270;SDS011;57680;54.292;18.598;2024-03-02T01:54:02;42.70;;;17.47;;
70270;SDS011;57680;54.292;18.598;2024-03-02T01:56:27;43.55;;;16.70;;
70270;SDS011;57680;54.292;18.598;2024-03-02T01:58:53;48.47;;;17.53;;
70270;SDS011;57680;54.292;18.598;2024-03-02T02:01:18;41.57;;;17.53;;
70270;SDS011;57680;54.292;18.598;2024-03-02T02:03:43;43.90;;;17.10;;
70270;SDS011;57680;54.292;18.598;2024-03-02T02:06:09;39.97;;;16.57;;
70270;SDS011;57680;54.292;18.598;2024-03-02T02:08:36;42.15;;;16.80;;
70270;SDS011;57680;54.292;18.598;2024-03-02T02:11:02;46.17;;;16.58;;
70270;SDS011;57680;54.292;18.598;2024-03-02T02:13:27;44.37;;;15.97;;
70270;SDS011;57680;54.292;18.598;2024-03-02T02:15:53;39.90;;;17.20;;
70270;SDS011;57680;54.292;18.598;2024-03-02T02:18:18;42.20;;;15.93;;
70270;SDS011;57680;54.292;18.598;2024-03-02T02:20:44;42.75;;;16.88;;
70270;SDS011;57680;54.292;18.598;2024-03-02T02:23:09;44.63;;;16.83;;
70270;SDS011;57680;54.292;18.598;2024-03-02T02:25:34;43.53;;;16.53;;
70270;SDS011;57680;54.292;18.598;2024-03-02T02:28:00;40.42;;;16.30;;
70270;SDS011;57680;54.292;18.598;2024-03-02T02:30:29;46.40;;;16.60;;
70270;SDS011;57680;54.292;18.598;2024-03-02T02:32:55;44.25;;;16.55;;
70270;SDS011;57680;54.292;18.598;2024-03-02T02:35:21;41.07;;;16.23;;
70270;SDS011;57680;54.292;18.598;2024-03-02T02:37:46;49.07;;;18.10;;
70270;SDS011;57680;54.292;18.598;2024-03-02T02:40:12;44.78;;;17.08;;
70270;SDS011;57680;54.292;18.598;2024-03-02T02:42:38;42.50;;;16.88;;
70270;SDS011;57680;54.292;18.598;2024-03-02T02:45:04;42.57;;;15.97;;
70270;SDS011;57680;54.292;18.598;2024-03-02T02:47:30;42.17;;;16.85;;
70270;SDS011;57680;54.292;18.598;2024-03-02T02:49:56;45.10;;;17.93;;
70270;SDS011;57680;54.292;18.598;2024-03-02T02:52:21;42.13;;;16.27;;
70270;SDS011;57680;54.292;18.598;2024-03-02T02:54:46;42.60;;;17.37;;
70270;SDS011;57680;54.292;18.598;2024-03-02T02:57:12;42.30;;;15.57;;
70270;SDS011;57680;54.292;18.598;2024-03-02T02:59:37;43.05;;;17.00;;
70270;SDS011;57680;54.292;18.598;2024-03-02T03:02:02;44.40;;;17.07;;
70270;SDS011;57680;54.292;18.598;2024-03-02T03:04:28;44.67;;;16.17;;
70270;SDS011;57680;54.292;18.598;2024-03-02T03:06:53;42.50;;;17.57;;
70270;SDS011;57680;54.292;18.598;2024-03-02T03:09:18;46.67;;;17.53;;
70270;SDS011;57680;54.292;18.598;2024-03-02T03:11:43;47.17;;;16.80;;
70270;SDS011;57680;54.292;18.598;2024-03-02T03:14:09;42.83;;;16.50;;
70270;SDS011;57680;54.292;18.598;2024-03-02T03:16:34;46.93;;;17.60;;
70270;SDS011;57680;54.292;18.598;2024-03-02T03:19:00;42.95;;;17.00;;
70270;SDS011;57680;54.292;18.598;2024-03-02T03:21:25;45.20;;;16.60;;
70270;SDS011;57680;54.292;18.598;2024-03-02T03:23:50;40.13;;;16.73;;
70270;SDS011;57680;54.292;18.598;2024-03-02T03:26:15;45.03;;;18.57;;
70270;SDS011;57680;54.292;18.598;2024-03-02T03:28:41;46.07;;;17.93;;
70270;SDS011;57680;54.292;18.598;2024-03-02T03:31:06;44.90;;;17.03;;
70270;SDS011;57680;54.292;18.598;2024-03-02T03:33:31;44.90;;;16.47;;
70270;SDS011;57680;54.292;18.598;2024-03-02T03:35:57;44.17;;;16.73;;
70270;SDS011;57680;54.292;18.598;2024-03-02T03:38:22;46.60;;;16.60;;
70270;SDS011;57680;54.292;18.598;2024-03-02T03:40:47;44.37;;;17.10;;
70270;SDS011;57680;54.292;18.598;2024-03-02T03:43:13;45.93;;;17.77;;
70270;SDS011;57680;54.292;18.598;2024-03-02T03:45:38;45.47;;;17.80;;
70270;SDS011;57680;54.292;18.598;2024-03-02T03:48:03;48.30;;;18.93;;
70270;SDS011;57680;54.292;18.598;2024-03-02T03:50:29;49.25;;;17.92;;
70270;SDS011;57680;54.292;18.598;2024-03-02T03:52:54;48.50;;;19.03;;
70270;SDS011;57680;54.292;18.598;2024-03-02T03:55:20;49.40;;;18.43;;
70270;SDS011;57680;54.292;18.598;2024-03-02T03:57:45;53.53;;;19.83;;
70270;SDS011;57680;54.292;18.598;2024-03-02T04:00:10;49.20;;;18.87;;
70270;SDS011;57680;54.292;18.598;2024-03-02T04:02:36;52.25;;;18.42;;
70270;SDS011;57680;54.292;18.598;2024-03-02T04:05:01;48.37;;;18.30;;
70270;SDS011;57680;54.292;18.598;2024-03-02T04:07:27;49.83;;;18.87;;
70270;SDS011;57680;54.292;18.598;2024-03-02T04:09:52;46.13;;;18.37;;
70270;SDS011;57680;54.292;18.598;2024-03-02T04:12:17;51.27;;;18.83;;
70270;SDS011;57680;54.292;18.598;2024-03-02T04:14:42;50.03;;;18.93;;
70270;SDS011;57680;54.292;18.598;2024-03-02T04:17:08;48.03;;;17.85;;
70270;SDS011;57680;54.292;18.598;2024-03-02T04:19:33;45.00;;;17.17;;
70270;SDS011;57680;54.292;18.598;2024-03-02T04:21:59;49.30;;;17.33;;
70270;SDS011;57680;54.292;18.598;2024-03-02T04:24:24;49.43;;;18.17;;
70270;SDS011;57680;54.292;18.598;2024-03-02T04:26:49;46.43;;;17.70;;
70270;SDS011;57680;54.292;18.598;2024-03-02T04:29:15;50.13;;;18.03;;
70270;SDS011;57680;54.292;18.598;2024-03-02T04:31:40;44.00;;;16.03;;
70270;SDS011;57680;54.292;18.598;2024-03-02T04:34:05;45.23;;;17.70;;
70270;SDS011;57680;54.292;18.598;2024-03-02T04:36:31;46.50;;;17.07;;
70270;SDS011;57680;54.292;18.598;2024-03-02T04:38:56;49.07;;;17.73;;
70270;SDS011;57680;54.292;18.598;2024-03-02T04:41:21;45.67;;;17.23;;
70270;SDS011;57680;54.292;18.598;2024-03-02T04:43:47;46.70;;;16.50;;
70270;SDS011;57680;54.292;18.598;2024-03-02T04:46:12;49.17;;;18.00;;
70270;SDS011;57680;54.292;18.598;2024-03-02T04:48:37;47.87;;;17.70;;
70270;SDS011;57680;54.292;18.598;2024-03-02T04:51:03;45.28;;;16.77;;
70270;SDS011;57680;54.292;18.598;2024-03-02T04:53:28;45.70;;;17.17;;
70270;SDS011;57680;54.292;18.598;2024-03-02T04:55:53;47.73;;;17.47;;
70270;SDS011;57680;54.292;18.598;2024-03-02T04:58:19;49.03;;;17.80;;
70270;SDS011;57680;54.292;18.598;2024-03-02T05:00:44;45.80;;;17.67;;
70270;SDS011;57680;54.292;18.598;2024-03-02T05:03:09;50.03;;;18.20;;
70270;SDS011;57680;54.292;18.598;2024-03-02T05:05:35;44.30;;;17.47;;
70270;SDS011;57680;54.292;18.598;2024-03-02T05:08:00;45.00;;;17.20;;
70270;SDS011;57680;54.292;18.598;2024-03-02T05:10:25;43.63;;;17.03;;
70270;SDS011;57680;54.292;18.598;2024-03-02T05:12:51;46.53;;;18.03;;
70270;SDS011;57680;54.292;18.598;2024-03-02T05:15:16;46.37;;;17.47;;
70270;SDS011;57680;54.292;18.598;2024-03-02T05:17:42;45.37;;;17.13;;
70270;SDS011;57680;54.292;18.598;2024-03-02T05:20:07;50.33;;;18.83;;
70270;SDS011;57680;54.292;18.598;2024-03-02T05:22:33;46.38;;;18.05;;
70270;SDS011;57680;54.292;18.598;2024-03-02T05:24:59;47.43;;;16.97;;
70270;SDS011;57680;54.292;18.598;2024-03-02T05:27:25;44.45;;;17.05;;
70270;SDS011;57680;54.292;18.598;2024-03-02T05:29:50;46.17;;;17.40;;
70270;SDS011;57680;54.292;18.598;2024-03-02T05:32:15;46.40;;;17.83;;
70270;SDS011;57680;54.292;18.598;2024-03-02T05:34:41;49.57;;;18.57;;
70270;SDS011;57680;54.292;18.598;2024-03-02T05:37:06;48.40;;;18.50;;
70270;SDS011;57680;54.292;18.598;2024-03-02T05:39:31;49.10;;;18.10;;
70270;SDS011;57680;54.292;18.598;2024-03-02T05:41:57;54.87;;;20.47;;
70270;SDS011;57680;54.292;18.598;2024-03-02T05:44:22;55.43;;;20.30;;
70270;SDS011;57680;54.292;18.598;2024-03-02T05:46:47;53.40;;;19.40;;
70270;SDS011;57680;54.292;18.598;2024-03-02T05:49:13;50.37;;;18.43;;
70270;SDS011;57680;54.292;18.598;2024-03-02T05:51:38;55.50;;;19.13;;
70270;SDS011;57680;54.292;18.598;2024-03-02T05:54:04;47.90;;;18.23;;
70270;SDS011;57680;54.292;18.598;2024-03-02T05:56:30;50.37;;;18.83;;
70270;SDS011;57680;54.292;18.598;2024-03-02T05:58:55;49.60;;;17.35;;
70270;SDS011;57680;54.292;18.598;2024-03-02T06:01:20;50.17;;;17.67;;
70270;SDS011;57680;54.292;18.598;2024-03-02T06:03:45;56.20;;;18.93;;
70270;SDS011;57680;54.292;18.598;2024-03-02T06:06:11;50.23;;;18.50;;
70270;SDS011;57680;54.292;18.598;2024-03-02T06:08:36;47.77;;;18.57;;
70270;SDS011;57680;54.292;18.598;2024-03-02T06:11:01;47.93;;;16.70;;
70270;SDS011;57680;54.292;18.598;2024-03-02T06:13:27;48.30;;;17.27;;
70270;SDS011;57680;54.292;18.598;2024-03-02T06:15:52;54.73;;;18.10;;
70270;SDS011;57680;54.292;18.598;2024-03-02T06:18:17;49.90;;;18.75;;
70270;SDS011;57680;54.292;18.598;2024-03-02T06:20:43;51.87;;;18.90;;
70270;SDS011;57680;54.292;18.598;2024-03-02T06:23:08;50.23;;;18.97;;
70270;SDS011;57680;54.292;18.598;2024-03-02T06:25:34;52.60;;;19.33;;
70270;SDS011;57680;54.292;18.598;2024-03-02T06:27:59;50.30;;;19.20;;
70270;SDS011;57680;54.292;18.598;2024-03-02T06:30:25;52.20;;;18.67;;
70270;SDS011;57680;54.292;18.598;2024-03-02T06:32:51;50.20;;;17.90;;
70270;SDS011;57680;54.292;18.598;2024-03-02T06:35:16;47.78;;;18.15;;
70270;SDS011;57680;54.292;18.598;2024-03-02T06:37:41;48.63;;;18.07;;
70270;SDS011;57680;54.292;18.598;2024-03-02T06:40:07;54.83;;;19.83;;
70270;SDS011;57680;54.292;18.598;2024-03-02T06:42:33;53.13;;;19.17;;
70270;SDS011;57680;54.292;18.598;2024-03-02T06:44:59;53.23;;;19.30;;
70270;SDS011;57680;54.292;18.598;2024-03-02T06:47:25;53.90;;;19.38;;
70270;SDS011;57680;54.292;18.598;2024-03-02T06:49:50;49.97;;;18.50;;
70270;SDS011;57680;54.292;18.598;2024-03-02T06:52:15;51.10;;;18.67;;
70270;SDS011;57680;54.292;18.598;2024-03-02T06:54:41;54.47;;;19.53;;
70270;SDS011;57680;54.292;18.598;2024-03-02T06:57:06;51.53;;;19.27;;
70270;SDS011;57680;54.292;18.598;2024-03-02T06:59:32;55.85;;;19.83;;
70270;SDS011;57680;54.292;18.598;2024-03-02T07:01:57;52.10;;;18.77;;
70270;SDS011;57680;54.292;18.598;2024-03-02T07:04:22;49.33;;;18.83;;
70270;SDS011;57680;54.292;18.598;2024-03-02T07:06:47;50.00;;;18.73;;
70270;SDS011;57680;54.292;18.598;2024-03-02T07:09:13;50.00;;;18.97;;
70270;SDS011;57680;54.292;18.598;2024-03-02T07:11:38;48.77;;;18.70;;
70270;SDS011;57680;54.292;18.598;2024-03-02T07:14:03;49.57;;;18.87;;
70270;SDS011;57680;54.292;18.598;2024-03-02T07:16:29;47.93;;;18.33;;
70270;SDS011;57680;54.292;18.598;2024-03-02T07:18:54;45.47;;;17.37;;
70270;SDS011;57680;54.292;18.598;2024-03-02T07:21:20;52.77;;;18.57;;
70270;SDS011;57680;54.292;18.598;2024-03-02T07:23:45;50.13;;;18.83;;
70270;SDS011;57680;54.292;18.598;2024-03-02T07:26:11;46.77;;;17.67;;
70270;SDS011;57680;54.292;18.598;2024-03-02T07:28:36;46.97;;;18.40;;
70270;SDS011;57680;54.292;18.598;2024-03-02T07:31:02;48.67;;;18.27;;
70270;SDS011;57680;54.292;18.598;2024-03-02T07:33:28;49.70;;;18.92;;
70270;SDS011;57680;54.292;18.598;2024-03-02T07:35:54;46.40;;;18.13;;
70270;SDS011;57680;54.292;18.598;2024-03-02T07:38:19;50.90;;;18.63;;
70270;SDS011;57680;54.292;18.598;2024-03-02T07:40:45;47.08;;;18.02;;
70270;SDS011;57680;54.292;18.598;2024-03-02T07:43:10;49.67;;;18.40;;
70270;SDS011;57680;54.292;18.598;2024-03-02T07:45:36;44.90;;;16.87;;
70270;SDS011;57680;54.292;18.598;2024-03-02T07:48:01;45.87;;;17.27;;
70270;SDS011;57680;54.292;18.598;2024-03-02T07:50:27;47.40;;;17.35;;
70270;SDS011;57680;54.292;18.598;2024-03-02T07:52:52;52.40;;;18.20;;
70270;SDS011;57680;54.292;18.598;2024-03-02T07:55:17;46.47;;;17.30;;
70270;SDS011;57680;54.292;18.598;2024-03-02T07:57:43;50.47;;;18.13;;
70270;SDS011;57680;54.292;18.598;2024-03-02T08:00:08;44.90;;;17.30;;
70270;SDS011;57680;54.292;18.598;2024-03-02T08:02:34;46.33;;;18.10;;
70270;SDS011;57680;54.292;18.598;2024-03-02T08:04:59;50.93;;;18.30;;
70270;SDS011;57680;54.292;18.598;2024-03-02T08:07:24;48.70;;;18.00;;
70270;SDS011;57680;54.292;18.598;2024-03-02T08:09:49;48.33;;;17.43;;
70270;SDS011;57680;54.292;18.598;2024-03-02T08:12:15;45.03;;;18.03;;
70270;SDS011;57680;54.292;18.598;2024-03-02T08:14:40;44.17;;;17.63;;
70270;SDS011;57680;54.292;18.598;2024-03-02T08:17:05;45.63;;;17.30;;
70270;SDS011;57680;54.292;18.598;2024-03-02T08:19:31;51.03;;;17.90;;
70270;SDS011;57680;54.292;18.598;2024-03-02T08:21:56;43.60;;;16.73;;
70270;SDS011;57680;54.292;18.598;2024-03-02T08:24:22;46.47;;;17.37;;
70270;SDS011;57680;54.292;18.598;2024-03-02T08:26:47;40.47;;;15.80;;
70270;SDS011;57680;54.292;18.598;2024-03-02T08:29:12;50.90;;;18.50;;
70270;SDS011;57680;54.292;18.598;2024-03-02T08:31:38;43.17;;;17.00;;
70270;SDS011;57680;54.292;18.598;2024-03-02T08:34:03;47.33;;;17.90;;
70270;SDS011;57680;54.292;18.598;2024-03-02T08:36:28;46.87;;;17.10;;
70270;SDS011;57680;54.292;18.598;2024-03-02T08:38:54;48.93;;;17.57;;
70270;SDS011;57680;54.292;18.598;2024-03-02T08:41:19;49.97;;;18.10;;
70270;SDS011;57680;54.292;18.598;2024-03-02T08:43:44;48.63;;;17.97;;
70270;SDS011;57680;54.292;18.598;2024-03-02T08:46:10;46.63;;;17.75;;
70270;SDS011;57680;54.292;18.598;2024-03-02T08:48:35;47.07;;;17.93;;
70270;SDS011;57680;54.292;18.598;2024-03-02T08:51:00;46.43;;;18.60;;
70270;SDS011;57680;54.292;18.598;2024-03-02T08:53:26;46.93;;;16.90;;
70270;SDS011;57680;54.292;18.598;2024-03-02T08:55:51;47.27;;;17.70;;
70270;SDS011;57680;54.292;18.598;2024-03-02T08:58:17;42.93;;;17.03;;
70270;SDS011;57680;54.292;18.598;2024-03-02T09:00:42;49.13;;;17.77;;
70270;SDS011;57680;54.292;18.598;2024-03-02T09:03:07;47.17;;;18.10;;
70270;SDS011;57680;54.292;18.598;2024-03-02T09:05:33;49.53;;;18.37;;
70270;SDS011;57680;54.292;18.598;2024-03-02T09:07:58;47.27;;;18.03;;
70270;SDS011;57680;54.292;18.598;2024-03-02T09:10:23;45.43;;;17.53;;
70270;SDS011;57680;54.292;18.598;2024-03-02T09:12:49;46.13;;;16.83;;
70270;SDS011;57680;54.292;18.598;2024-03-02T09:15:14;46.50;;;18.20;;
70270;SDS011;57680;54.292;18.598;2024-03-02T09:17:40;42.10;;;16.88;;
70270;SDS011;57680;54.292;18.598;2024-03-02T09:20:05;45.57;;;17.03;;
70270;SDS011;57680;54.292;18.598;2024-03-02T09:22:31;47.40;;;17.73;;
70270;SDS011;57680;54.292;18.598;2024-03-02T09:24:57;46.73;;;18.30;;
70270;SDS011;57680;54.292;18.598;2024-03-02T09:27:22;45.47;;;18.10;;
70270;SDS011;57680;54.292;18.598;2024-03-02T09:29:47;38.10;;;13.87;;
70270;SDS011;57680;54.292;18.598;2024-03-02T09:32:13;48.73;;;17.57;;
70270;SDS011;57680;54.292;18.598;2024-03-02T09:34:38;48.03;;;17.27;;
70270;SDS011;57680;54.292;18.598;2024-03-02T09:37:04;45.33;;;17.93;;
70270;SDS011;57680;54.292;18.598;2024-03-02T09:39:29;44.53;;;17.33;;
70270;SDS011;57680;54.292;18.598;2024-03-02T09:41:55;51.10;;;18.27;;
70270;SDS011;57680;54.292;18.598;2024-03-02T09:44:20;42.93;;;17.17;;
70270;SDS011;57680;54.292;18.598;2024-03-02T09:46:49;43.17;;;17.93;;
70270;SDS011;57680;54.292;18.598;2024-03-02T09:49:15;44.28;;;16.50;;
70270;SDS011;57680;54.292;18.598;2024-03-02T09:51:41;44.95;;;17.25;;
70270;SDS011;57680;54.292;18.598;2024-03-02T09:54:11;40.77;;;16.23;;
70270;SDS011;57680;54.292;18.598;2024-03-02T09:56:37;43.57;;;16.87;;
70270;SDS011;57680;54.292;18.598;2024-03-02T09:59:02;40.80;;;16.30;;
70270;SDS011;57680;54.292;18.598;2024-03-02T10:01:27;39.90;;;16.70;;
70270;SDS011;57680;54.292;18.598;2024-03-02T10:03:52;41.83;;;16.40;;
70270;SDS011;57680;54.292;18.598;2024-03-02T10:08:44;45.50;;;17.60;;
70270;SDS011;57680;54.292;18.598;2024-03-02T10:11:10;42.67;;;16.67;;
70270;SDS011;57680;54.292;18.598;2024-03-02T10:13:35;45.83;;;19.10;;
70270;SDS011;57680;54.292;18.598;2024-03-02T10:16:06;43.40;;;16.93;;
70270;SDS011;57680;54.292;18.598;2024-03-02T10:18:36;40.57;;;17.43;;
70270;SDS011;57680;54.292;18.598;2024-03-02T10:21:12;45.20;;;17.73;;
70270;SDS011;57680;54.292;18.598;2024-03-02T10:23:38;43.33;;;17.40;;
70270;SDS011;57680;54.292;18.598;2024-03-02T10:26:08;43.47;;;17.40;;
70270;SDS011;57680;54.292;18.598;2024-03-02T10:28:46;42.40;;;18.00;;
70270;SDS011;57680;54.292;18.598;2024-03-02T10:31:11;43.08;;;18.00;;
70270;SDS011;57680;54.292;18.598;2024-03-02T10:33:37;43.80;;;17.67;;
70270;SDS011;57680;54.292;18.598;2024-03-02T10:36:03;43.55;;;17.40;;
70270;SDS011;57680;54.292;18.598;2024-03-02T10:38:29;43.15;;;17.27;;
70270;SDS011;57680;54.292;18.598;2024-03-02T10:40:55;41.83;;;16.88;;
70270;SDS011;57680;54.292;18.598;2024-03-02T10:43:22;37.97;;;16.42;;
70270;SDS011;57680;54.292;18.598;2024-03-02T10:45:49;42.37;;;16.70;;
70270;SDS011;57680;54.292;18.598;2024-03-02T10:48:14;36.13;;;16.13;;
70270;SDS011;57680;54.292;18.598;2024-03-02T10:50:40;38.60;;;16.37;;
70270;SDS011;57680;54.292;18.598;2024-03-02T10:53:05;37.90;;;16.27;;
70270;SDS011;57680;54.292;18.598;2024-03-02T10:55:31;40.72;;;16.33;;
70270;SDS011;57680;54.292;18.598;2024-03-02T10:57:56;38.23;;;16.17;;
70270;SDS011;57680;54.292;18.598;2024-03-02T11:00:25;38.97;;;16.30;;
70270;SDS011;57680;54.292;18.598;2024-03-02T11:02:58;36.00;;;15.55;;
70270;SDS011;57680;54.292;18.598;2024-03-02T11:05:34;37.30;;;15.25;;
70270;SDS011;57680;54.292;18.598;2024-03-02T11:08:02;39.45;;;15.18;;
70270;SDS011;57680;54.292;18.598;2024-03-02T11:10:34;39.47;;;16.52;;
70270;SDS011;57680;54.292;18.598;2024-03-02T11:13:00;35.73;;;15.87;;
70270;SDS011;57680;54.292;18.598;2024-03-02T11:15:29;39.25;;;15.60;;
70270;SDS011;57680;54.292;18.598;2024-03-02T11:17:55;34.22;;;15.95;;
70270;SDS011;57680;54.292;18.598;2024-03-02T11:20:21;39.10;;;16.27;;
70270;SDS011;57680;54.292;18.598;2024-03-02T11:22:47;35.80;;;15.40;;
70270;SDS011;57680;54.292;18.598;2024-03-02T11:25:25;40.40;;;16.07;;
70270;SDS011;57680;54.292;18.598;2024-03-02T11:33:01;44.70;;;17.40;;
70270;SDS011;57680;54.292;18.598;2024-03-02T11:35:27;39.33;;;17.10;;
70270;SDS011;57680;54.292;18.598;2024-03-02T11:37:52;37.10;;;16.10;;
70270;SDS011;57680;54.292;18.598;2024-03-02T11:40:21;37.67;;;15.27;;
70270;SDS011;57680;54.292;18.598;2024-03-02T11:42:47;36.65;;;15.95;;
70270;SDS011;57680;54.292;18.598;2024-03-02T11:45:15;35.37;;;15.33;;
70270;SDS011;57680;54.292;18.598;2024-03-02T11:47:41;41.33;;;16.50;;
70270;SDS011;57680;54.292;18.598;2024-03-02T11:50:15;36.58;;;15.90;;
70270;SDS011;57680;54.292;18.598;2024-03-02T11:52:40;37.93;;;16.33;;
70270;SDS011;57680;54.292;18.598;2024-03-02T11:55:07;39.30;;;15.95;;
70270;SDS011;57680;54.292;18.598;2024-03-02T11:57:34;39.65;;;15.95;;
70270;SDS011;57680;54.292;18.598;2024-03-02T12:00:00;34.33;;;15.07;;
70270;SDS011;57680;54.292;18.598;2024-03-02T12:02:25;38.92;;;15.77;;
70270;SDS011;57680;54.292;18.598;2024-03-02T12:04:50;40.47;;;16.40;;
70270;SDS011;57680;54.292;18.598;2024-03-02T12:07:19;33.90;;;14.60;;
70270;SDS011;57680;54.292;18.598;2024-03-02T12:09:45;40.95;;;16.13;;
70270;SDS011;57680;54.292;18.598;2024-03-02T12:12:11;36.57;;;15.67;;
70270;SDS011;57680;54.292;18.598;2024-03-02T12:14:37;39.57;;;17.03;;
70270;SDS011;57680;54.292;18.598;2024-03-02T12:17:03;40.70;;;16.20;;
70270;SDS011;57680;54.292;18.598;2024-03-02T12:19:30;40.28;;;16.90;;
70270;SDS011;57680;54.292;18.598;2024-03-02T12:21:56;40.22;;;16.73;;
70270;SDS011;57680;54.292;18.598;2024-03-02T12:24:22;36.70;;;15.67;;
70270;SDS011;57680;54.292;18.598;2024-03-02T12:26:51;37.97;;;16.20;;
70270;SDS011;57680;54.292;18.598;2024-03-02T12:29:18;34.75;;;14.77;;
70270;SDS011;57680;54.292;18.598;2024-03-02T12:31:44;39.38;;;16.75;;
70270;SDS011;57680;54.292;18.598;2024-03-02T12:34:09;40.57;;;15.80;;
70270;SDS011;57680;54.292;18.598;2024-03-02T12:36:39;31.30;;;14.60;;
70270;SDS011;57680;54.292;18.598;2024-03-02T12:39:05;40.92;;;16.90;;
70270;SDS011;57680;54.292;18.598;2024-03-02T12:41:30;38.57;;;15.77;;
70270;SDS011;57680;54.292;18.598;2024-03-02T12:43:55;43.37;;;17.77;;
70270;SDS011;57680;54.292;18.598;2024-03-02T12:46:21;41.40;;;16.90;;
70270;SDS011;57680;54.292;18.598;2024-03-02T12:48:46;41.03;;;16.53;;
70270;SDS011;57680;54.292;18.598;2024-03-02T12:51:12;40.47;;;17.60;;
70270;SDS011;57680;54.292;18.598;2024-03-02T12:53:37;37.90;;;15.77;;
70270;SDS011;57680;54.292;18.598;2024-03-02T12:56:02;38.67;;;15.93;;
70270;SDS011;57680;54.292;18.598;2024-03-02T12:58:28;35.53;;;14.90;;
70270;SDS011;57680;54.292;18.598;2024-03-02T13:01:06;38.77;;;15.93;;
70270;SDS011;57680;54.292;18.598;2024-03-02T13:03:34;39.50;;;16.63;;
70270;SDS011;57680;54.292;18.598;2024-03-02T13:06:00;39.45;;;16.83;;
70270;SDS011;57680;54.292;18.598;2024-03-02T13:08:26;37.13;;;15.40;;
70270;SDS011;57680;54.292;18.598;2024-03-02T13:10:52;36.10;;;15.07;;
70270;SDS011;57680;54.292;18.598;2024-03-02T13:13:17;40.47;;;16.57;;
70270;SDS011;57680;54.292;18.598;2024-03-02T13:15:42;41.83;;;16.30;;
70270;SDS011;57680;54.292;18.598;2024-03-02T13:18:08;40.42;;;17.05;;
70270;SDS011;57680;54.292;18.598;2024-03-02T13:20:34;41.13;;;16.17;;
70270;SDS011;57680;54.292;18.598;2024-03-02T13:22:59;39.83;;;15.83;;
70270;SDS011;57680;54.292;18.598;2024-03-02T13:25:24;41.73;;;17.10;;
70270;SDS011;57680;54.292;18.598;2024-03-02T13:27:50;38.67;;;16.87;;
70270;SDS011;57680;54.292;18.598;2024-03-02T13:30:15;41.80;;;17.03;;
70270;SDS011;57680;54.292;18.598;2024-03-02T13:32:40;35.90;;;14.97;;
70270;SDS011;57680;54.292;18.598;2024-03-02T13:35:06;38.83;;;16.80;;
70270;SDS011;57680;54.292;18.598;2024-03-02T13:37:31;41.43;;;18.03;;
70270;SDS011;57680;54.292;18.598;2024-03-02T13:39:56;41.97;;;16.23;;
70270;SDS011;57680;54.292;18.598;2024-03-02T13:42:22;37.30;;;15.43;;
70270;SDS011;57680;54.292;18.598;2024-03-02T13:44:47;38.67;;;16.60;;
70270;SDS011;57680;54.292;18.598;2024-03-02T13:47:12;40.55;;;16.45;;
70270;SDS011;57680;54.292;18.598;2024-03-02T13:49:38;42.17;;;16.17;;
70270;SDS011;57680;54.292;18.598;2024-03-02T13:52:03;40.67;;;16.53;;
70270;SDS011;57680;54.292;18.598;2024-03-02T13:54:29;37.53;;;15.43;;
70270;SDS011;57680;54.292;18.598;2024-03-02T13:56:54;43.67;;;18.60;;
70270;SDS011;57680;54.292;18.598;2024-03-02T13:59:19;38.37;;;16.67;;
70270;SDS011;57680;54.292;18.598;2024-03-02T14:01:45;41.60;;;17.40;;
70270;SDS011;57680;54.292;18.598;2024-03-02T14:04:10;38.63;;;16.17;;
70270;SDS011;57680;54.292;18.598;2024-03-02T14:06:35;40.60;;;16.77;;
70270;SDS011;57680;54.292;18.598;2024-03-02T14:09:01;38.97;;;16.55;;
70270;SDS011;57680;54.292;18.598;2024-03-02T14:11:26;40.47;;;16.20;;
70270;SDS011;57680;54.292;18.598;2024-03-02T14:13:52;34.33;;;14.33;;